»·PEaware :: N733TR W28-KALW

N733TR :: W28-KALW

FLIGHT INFORMATION

Flight Status: Arrived
Operator: Privately registered:
United States
More flights under this callsign
Pilot: Jonathan B. (787)
Aircraft: ECLIPSE 500
(EA50)
More flights by this aircraft type
Origin: W28 Sequim Valley
United States
Destination: KALW Walla Walla Regl
United States
More flights between these airports :: More routes between these airports
Route: +SEA V2 ELN V187 PSC V520 LYLES KIMIW
File this flight plan on PilotEdge
Remarks: wa alphabet
Altitude:
(Current/Filed)
11,000ft
Speed:
(Current/Filed)
320kts
Departed: 10-Oct-20 12:43 PM
Arrived: 10-Oct-20 01:36 PM
Distance/Time
Traveled:
234nm/0:53
Distance/Time
To Go:
Arrived

Flight Plot

Page will automatically refresh every two minutes.

Flight plan parsing failed; only flown route is shown


Map Options




Map Legend


Flown Route
Filed Route
Departure Airport
Arrival Airport
Navaid (VOR, NDB)
Fix

Horizontal Profiles

Position Reports

Time Latitude Longitude Heading Altitude Ground
Speed
10-Oct-20 12:34 48.098969 -123.187869 259 147ft 0kts
10-Oct-20 12:35 48.098969 -123.187869 259 147ft 0kts
10-Oct-20 12:36 48.098423 -123.188485 208 147ft 0kts
10-Oct-20 12:37 48.098423 -123.188485 208 147ft 0kts
10-Oct-20 12:38 48.098423 -123.188485 208 147ft 0kts
10-Oct-20 12:39 48.098423 -123.188485 208 147ft 0kts
10-Oct-20 12:40 48.098423 -123.188485 208 147ft 0kts
10-Oct-20 12:41 48.098060 -123.188740 113 147ft 15kts
10-Oct-20 12:42 48.096826 -123.182752 286 147ft 52kts
10-Oct-20 12:43 48.085871 -123.208951 135 2513ft 182kts
10-Oct-20 12:44 48.065472 -123.139122 146 3608ft 146kts
10-Oct-20 12:46 48.025984 -123.086639 143 5860ft 237kts
10-Oct-20 12:47 47.969857 -123.011393 143 8618ft 274kts
10-Oct-20 12:48 47.912103 -122.933665 143 11402ft 282kts
10-Oct-20 12:49 47.863188 -122.868116 142 11278ft 332kts
10-Oct-20 12:50 47.800291 -122.783283 142 11535ft 301kts
10-Oct-20 12:51 47.745824 -122.709511 143 11416ft 242kts
10-Oct-20 12:52 47.697403 -122.644046 143 11017ft 227kts
10-Oct-20 12:53 47.646939 -122.576093 142 10981ft 279kts
10-Oct-20 12:54 47.582478 -122.489091 141 10982ft 319kts
10-Oct-20 12:55 47.513221 -122.395246 141 10984ft 323kts
10-Oct-20 12:56 47.450417 -122.303701 129 10988ft 317kts
10-Oct-20 12:57 47.411208 -122.183322 114 10996ft 318kts
10-Oct-20 12:58 47.378857 -122.043325 111 10999ft 318kts
10-Oct-20 12:59 47.347623 -121.900118 111 11002ft 317kts
10-Oct-20 13:00 47.316735 -121.758180 111 11004ft 318kts
10-Oct-20 13:01 47.285885 -121.617199 111 11000ft 318kts
10-Oct-20 13:02 47.254656 -121.475435 111 11001ft 318kts
10-Oct-20 13:02 47.229844 -121.363518 111 10988ft 319kts
10-Oct-20 13:04 47.194951 -121.207132 111 10948ft 321kts
10-Oct-20 13:04 47.170041 -121.095954 111 10944ft 335kts
10-Oct-20 13:05 47.135872 -120.944589 112 10944ft 348kts
10-Oct-20 13:06 47.100601 -120.789737 112 10945ft 354kts
10-Oct-20 13:07 47.064769 -120.633377 112 10973ft 356kts
10-Oct-20 13:08 47.028566 -120.476616 112 10975ft 357kts
10-Oct-20 13:09 46.963792 -120.348235 134 10976ft 347kts
10-Oct-20 13:10 46.896508 -120.226463 133 10970ft 346kts
10-Oct-20 13:11 46.829265 -120.105109 133 10969ft 346kts
10-Oct-20 13:12 46.762178 -119.984631 133 10967ft 345kts
10-Oct-20 13:13 46.698387 -119.870615 133 10977ft 343kts
10-Oct-20 13:14 46.648514 -119.747439 106 10992ft 352kts
10-Oct-20 13:15 46.619490 -119.606458 111 10615ft 344kts
10-Oct-20 13:16 46.589098 -119.473178 112 8556ft 328kts
10-Oct-20 13:17 46.559289 -119.344814 113 6450ft 315kts
10-Oct-20 13:18 46.530671 -119.223023 114 5003ft 284kts
10-Oct-20 13:19 46.507238 -119.122903 113 5009ft 230kts
10-Oct-20 13:20 46.482122 -119.017198 112 5030ft 298kts
10-Oct-20 13:21 46.453104 -118.894679 112 5130ft 305kts
10-Oct-20 13:22 46.425767 -118.780060 112 5027ft 276kts
10-Oct-20 13:23 46.400182 -118.673458 113 5043ft 262kts
10-Oct-20 13:24 46.375615 -118.571655 113 5059ft 242kts
10-Oct-20 13:25 46.352153 -118.474883 113 5063ft 234kts
10-Oct-20 13:26 46.328677 -118.378447 113 5063ft 232kts
10-Oct-20 13:27 46.305388 -118.282961 114 5061ft 219kts
10-Oct-20 13:28 46.285223 -118.200726 115 5059ft 175kts
10-Oct-20 13:29 46.268142 -118.130827 120 5044ft 151kts
10-Oct-20 13:30 46.237215 -118.131255 212 4416ft 145kts
10-Oct-20 13:31 46.200998 -118.169679 211 3461ft 161kts
10-Oct-20 13:32 46.165701 -118.207121 210 3240ft 135kts
10-Oct-20 13:33 46.133955 -118.240666 210 2517ft 115kts
10-Oct-20 13:34 46.109823 -118.266160 210 1593ft 95kts
10-Oct-20 13:35 46.093463 -118.283169 210 1208ft 5kts
10-Oct-20 13:36 46.091623 -118.281773 301 1208ft 0kts
10-Oct-20 13:37 46.091627 -118.281785 302 1208ft 0kts
10-Oct-20 13:38 46.091627 -118.281785 302 1208ft 0kts

Navigation Log

Ident Type
Flight plan parsing failed, navigation log unavailable